Terminal Aerodrome Forecast
Issued by NWS Sterling, VA

Current Version | Previous Version | Graphics & Text | Print | Product List | Glossary On
Versions: 1 2 3 4 5 6 7 8 9 10 11 12
063
FTUS41 KLWX 230533
TAFMRB
TAF
KMRB 230533Z 2306/2406 00000KT P6SM OVC060
     FM231500 20004KT P6SM SCT050
     FM231900 21006KT P6SM BKN050=

USA.gov is the U.S. government's official web portal to all federal, state and local government web resources and services.